createdAt,value
2022-10-06T00:00:14.108Z,9.50
2022-10-06T00:03:06.227Z,9.70
2022-10-06T00:05:38.112Z,9.60
2022-10-06T00:08:10.872Z,10.50
2022-10-06T00:10:42.864Z,9.40
2022-10-06T00:13:14.761Z,10.30
2022-10-06T00:15:46.498Z,10.20
2022-10-06T00:18:18.700Z,9.60
2022-10-06T00:20:56.819Z,9.50
2022-10-06T00:23:29.331Z,10.00
2022-10-06T00:26:01.175Z,10.40
2022-10-06T00:28:33.808Z,9.30
2022-10-06T00:31:06.614Z,9.20
2022-10-06T00:33:38.554Z,9.70
2022-10-06T00:36:10.840Z,9.20
2022-10-06T00:38:42.694Z,9.90
2022-10-06T00:41:18.763Z,9.60
2022-10-06T00:43:53.385Z,9.70
2022-10-06T00:46:29.890Z,10.00
2022-10-06T00:49:07.547Z,8.90
2022-10-06T00:51:44.026Z,9.10
2022-10-06T00:54:17.781Z,9.80
2022-10-06T00:56:50.212Z,10.50
2022-10-06T00:59:22.672Z,10.20
2022-10-06T01:02:02.255Z,8.90
2022-10-06T01:04:36.884Z,10.10
2022-10-06T01:07:09.971Z,10.10
2022-10-06T01:09:42.575Z,9.80
2022-10-06T01:12:14.927Z,9.20
2022-10-06T01:14:46.993Z,9.80
2022-10-06T01:17:23.286Z,10.20
2022-10-06T01:20:00.373Z,9.80
2022-10-06T01:22:35.409Z,10.10
2022-10-06T01:25:10.148Z,9.90
2022-10-06T01:27:47.100Z,10.10
2022-10-06T01:30:24.652Z,10.00
2022-10-06T01:32:57.031Z,10.20
2022-10-06T01:35:29.178Z,11.30
2022-10-06T01:38:01.308Z,10.70
2022-10-06T01:40:34.700Z,10.30
2022-10-06T01:43:07.131Z,10.20
2022-10-06T01:45:39.098Z,10.70
2022-10-06T01:48:11.643Z,10.30
2022-10-06T01:50:44.525Z,10.40
2022-10-06T01:53:16.390Z,9.90
2022-10-06T01:55:48.304Z,11.30
2022-10-06T01:58:24.381Z,9.90
2022-10-06T02:00:56.415Z,10.50
2022-10-06T02:03:28.216Z,10.50
2022-10-06T02:06:00.244Z,10.90
2022-10-06T02:08:33.404Z,10.10
2022-10-06T02:11:10.727Z,10.70
2022-10-06T02:13:49.617Z,10.70
2022-10-06T02:16:22.200Z,11.40
2022-10-06T02:18:54.743Z,11.20
2022-10-06T02:21:26.803Z,11.40
2022-10-06T02:23:58.590Z,10.90
2022-10-06T02:26:30.781Z,11.50
2022-10-06T02:29:02.847Z,12.10
2022-10-06T02:31:34.869Z,11.70
2022-10-06T02:34:06.773Z,10.70
2022-10-06T02:36:39.196Z,10.50
2022-10-06T02:39:11.196Z,11.40
2022-10-06T02:41:43.303Z,12.00
2022-10-06T02:44:15.414Z,11.30
2022-10-06T02:46:49.090Z,11.50
2022-10-06T02:49:22.346Z,11.40
2022-10-06T02:51:54.654Z,11.40
2022-10-06T02:54:26.534Z,12.10
2022-10-06T02:56:58.314Z,12.10
2022-10-06T02:59:30.275Z,12.10
2022-10-06T03:02:05.338Z,12.00
2022-10-06T03:04:37.412Z,11.90
2022-10-06T03:07:10.083Z,12.60
2022-10-06T03:09:43.204Z,12.40
2022-10-06T03:12:15.165Z,12.40
2022-10-06T03:14:48.849Z,11.80
2022-10-06T03:17:21.085Z,12.30
2022-10-06T03:19:59.344Z,12.20
2022-10-06T03:22:31.709Z,11.70
2022-10-06T03:25:04.464Z,11.10
2022-10-06T03:27:37.846Z,11.10
2022-10-06T03:30:13.028Z,11.00
2022-10-06T03:32:45.345Z,11.30
2022-10-06T03:35:17.287Z,11.10
2022-10-06T03:37:49.881Z,10.80
2022-10-06T03:40:21.661Z,13.70
2022-10-06T03:42:54.073Z,11.10
2022-10-06T03:45:26.167Z,10.60
2022-10-06T03:47:59.356Z,10.50
2022-10-06T03:50:31.484Z,10.80
2022-10-06T03:53:03.947Z,10.30
2022-10-06T03:55:36.775Z,10.80
2022-10-06T03:58:08.932Z,10.70
2022-10-06T04:00:40.962Z,10.80
2022-10-06T04:03:12.999Z,10.80
2022-10-06T04:05:57.602Z,10.00
2022-10-06T04:08:31.594Z,10.10
2022-10-06T04:11:10.700Z,10.20
2022-10-06T04:13:44.649Z,10.00
2022-10-06T04:16:18.666Z,9.60
2022-10-06T04:18:52.976Z,9.70
2022-10-06T04:21:26.772Z,10.70
2022-10-06T04:24:01.104Z,10.00
2022-10-06T04:26:37.666Z,9.90
2022-10-06T04:29:09.671Z,10.60
2022-10-06T04:31:42.934Z,9.60
2022-10-06T04:34:28.775Z,9.90
2022-10-06T04:37:01.020Z,10.00
2022-10-06T04:39:33.084Z,10.40
2022-10-06T04:42:05.026Z,9.90
2022-10-06T04:44:36.909Z,9.50
2022-10-06T04:47:09.318Z,10.50
2022-10-06T04:49:41.370Z,9.40
2022-10-06T04:52:13.844Z,10.40
2022-10-06T04:54:46.375Z,9.40
2022-10-06T04:57:18.598Z,10.20
2022-10-06T05:00:12.567Z,9.00
2022-10-06T05:02:47.818Z,9.10
2022-10-06T05:05:20.368Z,8.70
2022-10-06T05:07:52.777Z,9.30
2022-10-06T05:10:24.665Z,8.70
2022-10-06T05:12:57.233Z,9.00
2022-10-06T05:15:29.291Z,9.50
2022-10-06T05:18:01.568Z,9.80
2022-10-06T05:20:34.432Z,9.00
2022-10-06T05:23:10.099Z,8.70
2022-10-06T05:25:50.969Z,9.00
2022-10-06T05:28:24.293Z,8.70
2022-10-06T05:31:01.724Z,8.20
2022-10-06T05:33:36.504Z,8.50
2022-10-06T05:36:11.475Z,9.50
2022-10-06T05:38:44.139Z,10.20
2022-10-06T05:41:18.298Z,8.70
2022-10-06T05:43:51.461Z,8.60
2022-10-06T05:46:36.622Z,8.20
2022-10-06T05:49:10.696Z,8.40
2022-10-06T05:51:46.654Z,8.10
2022-10-06T05:54:23.111Z,8.50
2022-10-06T05:56:54.904Z,8.20
2022-10-06T05:59:27.419Z,7.50
2022-10-06T06:02:00.795Z,8.90
2022-10-06T06:04:43.591Z,9.20
2022-10-06T06:07:15.624Z,8.20
2022-10-06T06:09:51.463Z,8.30
2022-10-06T06:12:24.198Z,7.50
2022-10-06T06:15:33.292Z,8.50
2022-10-06T06:18:07.427Z,8.00
2022-10-06T06:20:39.559Z,7.80
2022-10-06T06:23:11.497Z,8.40
2022-10-06T06:25:44.386Z,7.90
2022-10-06T06:28:16.613Z,8.20
2022-10-06T06:30:49.076Z,8.60
2022-10-06T06:33:22.511Z,13.10
2022-10-06T06:35:54.346Z,9.00
2022-10-06T06:38:26.861Z,7.90
2022-10-06T06:41:00.413Z,7.10
2022-10-06T06:43:33.058Z,7.90
2022-10-06T06:46:27.345Z,8.50
2022-10-06T06:49:06.139Z,8.50
2022-10-06T06:51:44.769Z,8.10
2022-10-06T06:54:18.263Z,7.80
2022-10-06T06:56:55.457Z,7.40
2022-10-06T06:59:27.590Z,7.90
2022-10-06T07:02:03.481Z,7.40
2022-10-06T07:04:38.014Z,7.50
2022-10-06T07:07:13.335Z,7.00
2022-10-06T07:09:46.270Z,7.30
2022-10-06T07:12:19.282Z,6.60
2022-10-06T07:15:13.965Z,6.90
2022-10-06T07:18:07.076Z,6.20
2022-10-06T07:20:56.937Z,6.20
2022-10-06T07:23:46.607Z,6.40
2022-10-06T07:26:24.776Z,5.80
2022-10-06T07:29:00.258Z,5.30
2022-10-06T07:31:33.803Z,4.80
2022-10-06T07:34:08.282Z,4.90
2022-10-06T07:36:40.922Z,5.80
2022-10-06T07:39:13.227Z,8.30
2022-10-06T07:41:45.295Z,6.70
2022-10-06T07:44:17.770Z,6.10
2022-10-06T07:46:52.428Z,4.70
2022-10-06T07:49:37.695Z,4.60
2022-10-06T07:52:09.472Z,4.30
2022-10-06T07:54:44.705Z,4.90
2022-10-06T07:57:34.784Z,4.50
2022-10-06T08:00:08.173Z,5.60
2022-10-06T08:02:45.786Z,4.90
2022-10-06T08:05:17.788Z,4.20
2022-10-06T08:07:50.428Z,4.40
2022-10-06T08:10:22.403Z,3.40
2022-10-06T08:12:54.417Z,3.50
2022-10-06T08:15:26.273Z,4.80
2022-10-06T08:18:00.011Z,4.40
2022-10-06T08:20:32.058Z,4.20
2022-10-06T08:23:07.233Z,4.00
2022-10-06T08:25:42.846Z,4.70
2022-10-06T08:28:15.405Z,3.90
2022-10-06T08:30:47.546Z,3.20
2022-10-06T08:33:21.577Z,3.80
2022-10-06T08:35:53.767Z,3.50
2022-10-06T08:38:25.711Z,3.80
2022-10-06T08:40:57.480Z,3.30
2022-10-06T08:43:31.495Z,4.40
2022-10-06T08:46:05.043Z,3.70
2022-10-06T08:48:38.950Z,5.20
2022-10-06T08:51:26.110Z,6.10
2022-10-06T08:54:09.450Z,7.30
2022-10-06T08:56:52.104Z,7.20
2022-10-06T08:59:24.137Z,5.20
2022-10-06T09:01:56.049Z,4.60
2022-10-06T09:04:32.032Z,5.20
2022-10-06T09:07:11.458Z,5.10
2022-10-06T09:09:58.745Z,3.20
2022-10-06T09:12:36.291Z,3.80
2022-10-06T09:15:27.798Z,4.00
2022-10-06T09:18:07.340Z,4.20
2022-10-06T09:20:43.559Z,3.30
2022-10-06T09:23:38.811Z,2.90
2022-10-06T09:26:14.981Z,3.70
2022-10-06T09:28:47.254Z,6.10
2022-10-06T09:31:27.414Z,10.00
2022-10-06T09:34:05.004Z,3.70
2022-10-06T09:37:02.999Z,3.90
2022-10-06T09:39:38.515Z,3.50
2022-10-06T09:42:19.743Z,2.60
2022-10-06T09:45:01.966Z,2.60
2022-10-06T09:47:41.001Z,4.20
2022-10-06T09:50:22.873Z,2.60
2022-10-06T09:53:12.478Z,2.20
2022-10-06T09:55:53.824Z,3.50
2022-10-06T09:58:34.874Z,2.10
2022-10-06T10:01:10.164Z,1.60
2022-10-06T10:06:44.498Z,1.80
2022-10-06T10:09:29.975Z,1.70
2022-10-06T10:12:28.026Z,1.80
2022-10-06T10:15:04.103Z,60.30
2022-10-06T10:17:41.050Z,48.80
2022-10-06T10:20:29.459Z,8.00
2022-10-06T10:23:04.806Z,31.30
2022-10-06T10:26:03.730Z,7.00
2022-10-06T10:29:02.916Z,4.30
2022-10-06T10:31:49.130Z,2.00
2022-10-06T10:34:46.254Z,3.30
2022-10-06T10:37:24.838Z,2.50
2022-10-06T10:40:01.456Z,1.20
2022-10-06T10:42:40.846Z,1.80
2022-10-06T10:45:19.524Z,2.20
2022-10-06T10:47:51.901Z,1.40
2022-10-06T10:50:28.845Z,1.60
2022-10-06T10:53:08.916Z,1.40
2022-10-06T10:55:45.738Z,1.60
2022-10-06T10:58:23.819Z,1.40
2022-10-06T11:01:01.364Z,1.60
2022-10-06T11:03:33.565Z,1.60
2022-10-06T11:06:23.941Z,1.60
2022-10-06T11:09:03.765Z,1.30
2022-10-06T11:11:54.258Z,1.00
2022-10-06T11:14:42.363Z,1.30
2022-10-06T11:17:26.790Z,1.00
2022-10-06T11:20:05.877Z,1.60
2022-10-06T11:22:45.953Z,0.80
2022-10-06T11:25:34.215Z,0.80
2022-10-06T11:28:14.033Z,0.90
2022-10-06T11:31:00.244Z,1.20
2022-10-06T11:33:40.990Z,1.20
2022-10-06T11:36:21.495Z,1.00
2022-10-06T11:39:02.524Z,1.00
2022-10-06T11:41:39.973Z,0.90
2022-10-06T11:44:23.469Z,2.50
2022-10-06T11:46:58.944Z,0.80
2022-10-06T11:49:56.159Z,0.90
2022-10-06T11:52:55.398Z,1.10
2022-10-06T11:55:29.111Z,1.30
2022-10-06T11:58:41.411Z,0.90
2022-10-06T12:01:50.105Z,0.90
2022-10-06T12:04:24.669Z,1.60
2022-10-06T12:07:04.580Z,0.70
2022-10-06T12:09:53.540Z,1.00
2022-10-06T12:13:01.901Z,1.10
2022-10-06T12:19:18.770Z,0.90
2022-10-06T12:22:00.660Z,0.70
2022-10-06T12:24:44.923Z,2.10
2022-10-06T12:27:44.202Z,1.20
2022-10-06T12:30:23.581Z,1.00
2022-10-06T12:32:58.248Z,2.30
2022-10-06T12:35:36.232Z,1.40
2022-10-06T12:38:35.319Z,1.10
2022-10-06T12:41:13.046Z,1.00
2022-10-06T12:43:55.132Z,1.00
2022-10-06T12:46:47.603Z,1.10
2022-10-06T12:49:41.811Z,1.40
2022-10-06T12:52:21.401Z,0.90
2022-10-06T12:55:07.535Z,0.80
2022-10-06T12:57:50.914Z,0.80
2022-10-06T13:00:32.179Z,1.40
2022-10-06T13:03:07.161Z,0.90
2022-10-06T13:05:39.600Z,0.90
2022-10-06T13:08:25.422Z,1.10
2022-10-06T13:11:15.115Z,0.90
2022-10-06T13:13:53.441Z,0.80
2022-10-06T13:16:29.065Z,1.20
2022-10-06T13:19:02.212Z,0.60
2022-10-06T13:21:34.782Z,1.10
2022-10-06T13:24:06.904Z,1.50
2022-10-06T13:26:39.227Z,1.00
2022-10-06T13:29:21.326Z,1.10
2022-10-06T13:31:55.095Z,1.30
2022-10-06T13:34:33.069Z,1.20
2022-10-06T13:37:05.303Z,1.10
2022-10-06T13:39:37.163Z,1.50
2022-10-06T13:42:17.749Z,1.70
2022-10-06T13:44:58.302Z,1.50
2022-10-06T13:47:31.576Z,1.50
2022-10-06T13:50:06.836Z,2.20
2022-10-06T13:52:41.409Z,1.50
2022-10-06T13:55:21.810Z,1.40
2022-10-06T13:58:09.430Z,1.80
2022-10-06T14:00:56.073Z,1.10
2022-10-06T14:06:20.813Z,4.60
2022-10-06T14:08:56.018Z,3.20
2022-10-06T14:11:30.879Z,2.00
2022-10-06T14:14:05.365Z,2.50
2022-10-06T14:16:37.278Z,2.70
2022-10-06T14:19:30.580Z,2.20
2022-10-06T14:22:03.547Z,3.70
2022-10-06T14:24:37.512Z,1.50
2022-10-06T14:27:09.900Z,1.80
2022-10-06T14:29:41.862Z,2.30
2022-10-06T14:32:17.667Z,2.60
2022-10-06T14:34:49.641Z,1.40
2022-10-06T14:37:21.666Z,1.10
2022-10-06T14:39:56.070Z,4.60
2022-10-06T14:42:28.350Z,2.50
2022-10-06T14:45:00.413Z,2.40
2022-10-06T14:47:32.566Z,1.60
2022-10-06T14:50:07.431Z,4.00
2022-10-06T14:52:39.703Z,3.00
2022-10-06T14:55:13.127Z,2.20
2022-10-06T14:57:45.331Z,3.10
2022-10-06T15:00:20.782Z,1.70
2022-10-06T15:02:52.688Z,3.10
2022-10-06T15:05:24.752Z,5.60
2022-10-06T15:08:11.925Z,6.10
2022-10-06T15:10:54.080Z,7.20
2022-10-06T15:13:26.069Z,3.90
2022-10-06T15:16:07.452Z,2.30
2022-10-06T15:18:42.685Z,3.60
2022-10-06T15:21:14.871Z,2.50
2022-10-06T15:23:48.066Z,1.60
2022-10-06T15:26:37.740Z,1.80
2022-10-06T15:29:09.715Z,3.40
2022-10-06T15:31:43.437Z,2.20
2022-10-06T15:34:18.078Z,2.30
2022-10-06T15:36:52.638Z,3.20
2022-10-06T15:39:26.508Z,5.70
2022-10-06T15:41:59.241Z,3.30
2022-10-06T15:44:34.983Z,3.70
2022-10-06T15:47:08.110Z,3.30
2022-10-06T15:49:41.784Z,3.10
2022-10-06T15:52:14.884Z,7.30
2022-10-06T15:54:49.937Z,5.30
2022-10-06T15:57:22.273Z,6.10
2022-10-06T15:59:54.235Z,6.80
2022-10-06T16:02:27.218Z,5.60
2022-10-06T16:05:13.312Z,4.00
2022-10-06T16:07:45.112Z,4.20
2022-10-06T16:10:17.105Z,9.50
2022-10-06T16:12:49.218Z,15.90
2022-10-06T16:15:21.137Z,14.00
2022-10-06T16:17:53.498Z,11.10
2022-10-06T16:20:25.275Z,9.40
2022-10-06T16:22:57.214Z,7.70
2022-10-06T16:25:29.004Z,11.20
2022-10-06T16:28:01.211Z,9.40
2022-10-06T16:30:33.739Z,8.20
2022-10-06T16:33:05.652Z,7.30
2022-10-06T16:35:37.445Z,4.60
2022-10-06T16:38:09.297Z,5.50
2022-10-06T16:40:41.221Z,8.10
2022-10-06T16:43:13.769Z,9.00
2022-10-06T16:45:59.776Z,7.70
2022-10-06T16:48:35.829Z,7.10
2022-10-06T16:51:10.704Z,7.20
2022-10-06T16:53:44.267Z,5.60
2022-10-06T16:56:20.245Z,5.40
2022-10-06T16:58:54.472Z,5.80
2022-10-06T17:01:28.383Z,6.60
2022-10-06T17:04:06.789Z,6.60
2022-10-06T17:06:41.063Z,5.80
2022-10-06T17:09:19.049Z,6.10
2022-10-06T17:11:53.182Z,6.20
2022-10-06T17:14:26.409Z,6.10
2022-10-06T17:16:59.277Z,6.10
2022-10-06T17:19:32.172Z,6.00
2022-10-06T17:22:04.147Z,6.20
2022-10-06T17:24:36.042Z,6.70
2022-10-06T17:27:08.127Z,6.20
2022-10-06T17:29:39.930Z,6.00
2022-10-06T17:32:11.730Z,8.40
2022-10-06T17:34:43.640Z,8.90
2022-10-06T17:37:17.239Z,18.00
2022-10-06T17:39:49.143Z,15.80
2022-10-06T17:42:21.261Z,16.10
2022-10-06T17:44:53.510Z,20.40
2022-10-06T17:47:25.960Z,16.20
2022-10-06T17:49:57.772Z,14.70
2022-10-06T17:52:30.446Z,10.80
2022-10-06T17:55:07.134Z,8.60
2022-10-06T17:57:40.110Z,6.90
2022-10-06T18:00:17.816Z,5.90
2022-10-06T18:02:49.970Z,5.50
2022-10-06T18:05:21.985Z,7.50
2022-10-06T18:07:55.333Z,7.50
2022-10-06T18:10:45.204Z,8.60
2022-10-06T18:13:17.034Z,9.70
2022-10-06T18:15:49.694Z,11.00
2022-10-06T18:18:25.228Z,10.80
2022-10-06T18:21:05.080Z,11.40
2022-10-06T18:23:37.847Z,8.30
2022-10-06T18:26:11.299Z,7.40
2022-10-06T18:28:44.148Z,8.50
2022-10-06T18:31:18.168Z,11.30
2022-10-06T18:36:46.809Z,11.00
2022-10-06T18:39:18.647Z,10.00
2022-10-06T18:41:51.265Z,12.50
2022-10-06T18:44:36.944Z,11.60
2022-10-06T18:47:27.170Z,10.80
2022-10-06T18:49:59.063Z,10.40
2022-10-06T18:52:31.266Z,11.00
2022-10-06T18:55:03.125Z,11.40
2022-10-06T18:57:36.738Z,11.10
2022-10-06T19:00:11.573Z,11.40
2022-10-06T19:02:48.131Z,10.80
2022-10-06T19:05:20.906Z,11.60
2022-10-06T19:07:55.873Z,11.90
2022-10-06T19:10:27.680Z,12.50
2022-10-06T19:12:59.479Z,14.40
2022-10-06T19:15:31.294Z,27.40
2022-10-06T19:18:04.281Z,25.80
2022-10-06T19:20:36.059Z,26.30
2022-10-06T19:23:08.603Z,28.40
2022-10-06T19:25:40.523Z,28.00
2022-10-06T19:28:12.409Z,29.20
2022-10-06T19:30:44.387Z,30.50
2022-10-06T19:33:16.502Z,31.40
2022-10-06T19:35:55.026Z,31.20
2022-10-06T19:38:28.166Z,32.70
2022-10-06T19:41:13.969Z,33.20
2022-10-06T19:43:46.186Z,33.50
2022-10-06T19:46:19.049Z,34.30
2022-10-06T19:48:56.543Z,36.30
2022-10-06T19:51:28.486Z,42.90
2022-10-06T19:54:00.474Z,47.00
2022-10-06T19:56:33.287Z,64.80
2022-10-06T19:59:06.057Z,76.70
2022-10-06T20:01:38.141Z,81.30
2022-10-06T20:04:12.211Z,78.60
2022-10-06T20:06:46.886Z,77.10
2022-10-06T20:09:22.375Z,72.80
2022-10-06T20:11:54.279Z,70.70
2022-10-06T20:14:26.643Z,68.30
2022-10-06T20:16:59.113Z,66.40
2022-10-06T20:19:31.196Z,65.40
2022-10-06T20:22:03.482Z,59.00
2022-10-06T20:24:35.957Z,57.80
2022-10-06T20:27:07.956Z,51.90
2022-10-06T20:29:42.247Z,45.30
2022-10-06T20:32:14.324Z,45.20
2022-10-06T20:34:46.319Z,43.90
2022-10-06T20:37:18.059Z,37.90
2022-10-06T20:40:07.652Z,35.00
2022-10-06T20:42:44.823Z,32.70
2022-10-06T20:45:17.285Z,32.40
2022-10-06T20:47:49.126Z,29.90
2022-10-06T20:50:21.250Z,25.50
2022-10-06T20:52:54.867Z,24.90
2022-10-06T20:55:26.682Z,23.00
2022-10-06T20:57:58.698Z,20.60
2022-10-06T21:00:30.549Z,22.50
2022-10-06T21:03:03.109Z,19.70
2022-10-06T21:05:34.997Z,18.70
2022-10-06T21:08:06.820Z,17.10
2022-10-06T21:10:38.703Z,16.60
2022-10-06T21:13:10.695Z,17.70
2022-10-06T21:15:46.867Z,17.90
2022-10-06T21:18:19.116Z,16.40
2022-10-06T21:21:00.361Z,18.00
2022-10-06T21:23:37.696Z,15.60
2022-10-06T21:26:12.569Z,14.90
2022-10-06T21:28:45.126Z,16.30
2022-10-06T21:31:18.934Z,19.70
2022-10-06T21:33:51.840Z,17.00
2022-10-06T21:36:25.051Z,17.20
2022-10-06T21:38:58.030Z,19.90
2022-10-06T21:41:32.783Z,18.50
2022-10-06T21:44:06.787Z,19.90
2022-10-06T21:46:40.654Z,17.70
2022-10-06T21:49:15.595Z,16.60
2022-10-06T21:51:49.405Z,15.70
2022-10-06T21:54:21.927Z,15.10
2022-10-06T21:56:54.775Z,13.30
2022-10-06T21:59:26.641Z,13.60
2022-10-06T22:01:58.944Z,14.10
2022-10-06T22:04:30.787Z,14.20
2022-10-06T22:07:02.702Z,13.10
2022-10-06T22:09:34.571Z,13.70
2022-10-06T22:12:06.798Z,13.30
2022-10-06T22:14:38.677Z,12.80
2022-10-06T22:17:10.473Z,12.60
2022-10-06T22:19:42.291Z,11.90
2022-10-06T22:22:14.284Z,13.20
2022-10-06T22:24:46.083Z,11.80
2022-10-06T22:27:18.045Z,12.20
2022-10-06T22:29:49.856Z,11.50
2022-10-06T22:32:23.234Z,12.00
2022-10-06T22:34:55.122Z,11.60
2022-10-06T22:37:27.029Z,11.20
2022-10-06T22:39:58.901Z,11.50
2022-10-06T22:42:30.873Z,12.70
2022-10-06T22:45:02.656Z,10.10
2022-10-06T22:47:34.454Z,10.40
2022-10-06T22:50:07.709Z,11.80
2022-10-06T22:52:39.639Z,11.80
2022-10-06T22:55:15.530Z,11.90
2022-10-06T22:57:47.612Z,10.80
2022-10-06T23:00:19.754Z,11.40
2022-10-06T23:02:51.582Z,11.30
2022-10-06T23:05:23.462Z,11.10
2022-10-06T23:07:57.504Z,13.00
2022-10-06T23:10:30.618Z,11.30
2022-10-06T23:13:03.237Z,11.40
2022-10-06T23:15:35.066Z,11.90
2022-10-06T23:18:08.217Z,11.10
2022-10-06T23:20:40.082Z,11.70
2022-10-06T23:23:12.339Z,10.00
2022-10-06T23:25:45.500Z,10.40
2022-10-06T23:28:17.655Z,10.10
2022-10-06T23:30:49.699Z,11.20
2022-10-06T23:33:21.714Z,11.20
2022-10-06T23:36:00.191Z,10.60
2022-10-06T23:38:32.079Z,11.10
2022-10-06T23:41:04.415Z,10.90
2022-10-06T23:43:36.557Z,10.50
2022-10-06T23:46:09.123Z,10.50
2022-10-06T23:48:40.968Z,11.20
2022-10-06T23:51:15.265Z,10.80
2022-10-06T23:53:47.245Z,11.50
2022-10-06T23:56:20.785Z,11.70
2022-10-06T23:58:52.650Z,11.70
